EDDH/HAM METAR and TAF weather

Enter ICAO airport designator
Station Type Date Time Source
EDDH METAR 2019/10/18 11:50 UTC NOAA

EDDH 181150Z 18013KT 9999 SCT024 17/11 Q1003 NOSIG


Station Type Date Time Source
EDDH Decoded METAR 2019/10/18 11:50 UTC NOAA

Hamburg-Fuhlsbuettel, Germany (EDDH) 53-38N 010-00E 15M
Oct 18, 2019 - 07:50 AM EDT / 2019.10.18 1150 UTC
Wind: from the S (180 degrees) at 15 MPH (13 KT):0
Visibility: greater than 7 mile(s):0
Sky conditions: partly cloudy
Temperature: 62 F (17 C)
Dew Point: 51 F (11 C)
Relative Humidity: 67%
Pressure (altimeter): 29.62 in. Hg (1003 hPa)
ob: EDDH 181150Z 18013KT 9999 SCT024 17/11 Q1003 NOSIG
cycle: 12

Station Type Date Time Source
EDDH TAF 2019/10/18 12:27 UTC NOAA

TAF EDDH 181100Z 1812/1918 18012KT 9999 SCT025
TEMPO 1812/1818 20015G25KT 4000 SHRA BKN020CB PROB30
TEMPO 1814/1817 22020G35KT 2000 TSRA BKN013CB
BECMG 1822/1824 19007KT
TEMPO 1915/1918 4500 RA BKN012

Example: see airport list